sensor_id;sensor_type;location;lat;lon;timestamp;pressure;altitude;pressure_sealevel;temperature;humidity
72336;BME280;65062;48.446;8.834;2023-04-28T00:01:17;97358.38;;;8.81;88.03
72336;BME280;65062;48.446;8.834;2023-04-28T00:04:18;97362.75;;;8.66;88.71
72336;BME280;65062;48.446;8.834;2023-04-28T00:07:18;97357.44;;;8.74;88.95
72336;BME280;65062;48.446;8.834;2023-04-28T00:10:19;97365.63;;;8.71;89.60
72336;BME280;65062;48.446;8.834;2023-04-28T00:13:19;97370.06;;;8.70;89.71
72336;BME280;65062;48.446;8.834;2023-04-28T00:16:19;97362.06;;;8.72;89.96
72336;BME280;65062;48.446;8.834;2023-04-28T00:19:20;97359.44;;;8.72;90.00
72336;BME280;65062;48.446;8.834;2023-04-28T00:22:20;97354.47;;;8.77;89.31
72336;BME280;65062;48.446;8.834;2023-04-28T00:25:21;97349.53;;;8.67;89.47
72336;BME280;65062;48.446;8.834;2023-04-28T00:28:21;97346.75;;;8.69;90.52
72336;BME280;65062;48.446;8.834;2023-04-28T00:31:22;97347.47;;;8.77;89.84
72336;BME280;65062;48.446;8.834;2023-04-28T00:34:22;97347.41;;;8.85;89.63
72336;BME280;65062;48.446;8.834;2023-04-28T00:37:22;97332.53;;;8.86;90.09
72336;BME280;65062;48.446;8.834;2023-04-28T00:40:23;97337.41;;;8.89;89.69
72336;BME280;65062;48.446;8.834;2023-04-28T00:43:31;97326.19;;;8.88;88.40
72336;BME280;65062;48.446;8.834;2023-04-28T00:46:32;97327.88;;;8.96;89.25
72336;BME280;65062;48.446;8.834;2023-04-28T00:49:33;97321.75;;;8.89;88.54
72336;BME280;65062;48.446;8.834;2023-04-28T00:52:35;97320.31;;;8.86;89.03
72336;BME280;65062;48.446;8.834;2023-04-28T00:55:36;97322.56;;;8.89;88.86
72336;BME280;65062;48.446;8.834;2023-04-28T00:58:37;97322.94;;;8.86;89.03
72336;BME280;65062;48.446;8.834;2023-04-28T01:01:38;97321.50;;;8.84;88.56
72336;BME280;65062;48.446;8.834;2023-04-28T01:04:38;97313.56;;;8.77;90.04
72336;BME280;65062;48.446;8.834;2023-04-28T01:07:38;97318.88;;;8.84;89.98
72336;BME280;65062;48.446;8.834;2023-04-28T01:10:42;97309.53;;;8.89;89.23
72336;BME280;65062;48.446;8.834;2023-04-28T01:13:43;97306.75;;;8.91;89.07
72336;BME280;65062;48.446;8.834;2023-04-28T01:16:43;97305.56;;;8.93;88.47
72336;BME280;65062;48.446;8.834;2023-04-28T01:19:44;97306.75;;;8.91;89.22
72336;BME280;65062;48.446;8.834;2023-04-28T01:22:44;97309.59;;;8.96;88.06
72336;BME280;65062;48.446;8.834;2023-04-28T01:25:44;97309.97;;;8.93;88.48
72336;BME280;65062;48.446;8.834;2023-04-28T01:28:45;97303.31;;;8.90;88.92
72336;BME280;65062;48.446;8.834;2023-04-28T01:31:45;97295.13;;;8.93;88.43
72336;BME280;65062;48.446;8.834;2023-04-28T01:34:46;97296.66;;;8.88;88.89
72336;BME280;65062;48.446;8.834;2023-04-28T01:37:46;97304.94;;;8.91;89.53
72336;BME280;65062;48.446;8.834;2023-04-28T01:40:47;97298.56;;;8.94;88.77
72336;BME280;65062;48.446;8.834;2023-04-28T01:43:47;97286.22;;;9.02;88.63
72336;BME280;65062;48.446;8.834;2023-04-28T01:46:47;97286.22;;;9.02;88.02
72336;BME280;65062;48.446;8.834;2023-04-28T01:49:48;97277.94;;;8.99;87.51
72336;BME280;65062;48.446;8.834;2023-04-28T01:52:49;97293.59;;;8.99;88.01
72336;BME280;65062;48.446;8.834;2023-04-28T01:55:49;97289.38;;;8.98;88.51
72336;BME280;65062;48.446;8.834;2023-04-28T01:58:50;97286.84;;;8.90;88.75
72336;BME280;65062;48.446;8.834;2023-04-28T02:01:51;97295.03;;;9.01;89.04
72336;BME280;65062;48.446;8.834;2023-04-28T02:04:51;97289.19;;;8.99;88.57
72336;BME280;65062;48.446;8.834;2023-04-28T02:07:51;97284.25;;;9.04;88.80
72336;BME280;65062;48.446;8.834;2023-04-28T02:10:51;97286.22;;;9.02;88.77
72336;BME280;65062;48.446;8.834;2023-04-28T02:13:52;97287.47;;;9.06;88.29
72336;BME280;65062;48.446;8.834;2023-04-28T02:16:52;97284.84;;;9.06;88.59
72336;BME280;65062;48.446;8.834;2023-04-28T02:19:56;97276.06;;;9.07;88.18
72336;BME280;65062;48.446;8.834;2023-04-28T02:22:56;97272.09;;;9.11;88.18
72336;BME280;65062;48.446;8.834;2023-04-28T02:26:00;97267.03;;;9.10;87.85
72336;BME280;65062;48.446;8.834;2023-04-28T02:29:01;97262.63;;;9.10;89.02
72336;BME280;65062;48.446;8.834;2023-04-28T02:32:03;97263.97;;;9.06;88.60
72336;BME280;65062;48.446;8.834;2023-04-28T02:35:04;97265.63;;;9.07;88.12
72336;BME280;65062;48.446;8.834;2023-04-28T02:38:04;97263.06;;;9.14;88.29
72336;BME280;65062;48.446;8.834;2023-04-28T02:41:05;97272.72;;;9.13;88.29
72336;BME280;65062;48.446;8.834;2023-04-28T02:44:08;97280.72;;;9.12;87.48
72336;BME280;65062;48.446;8.834;2023-04-28T02:47:08;97285.66;;;9.21;87.42
72336;BME280;65062;48.446;8.834;2023-04-28T02:50:09;97284.41;;;9.17;88.09
72336;BME280;65062;48.446;8.834;2023-04-28T02:53:10;97283.69;;;9.23;87.77
72336;BME280;65062;48.446;8.834;2023-04-28T02:56:10;97276.03;;;9.22;88.08
72336;BME280;65062;48.446;8.834;2023-04-28T02:59:10;97287.44;;;9.21;87.59
72336;BME280;65062;48.446;8.834;2023-04-28T03:02:11;97286.91;;;9.25;87.47
72336;BME280;65062;48.446;8.834;2023-04-28T03:05:11;97284.31;;;9.25;87.44
72336;BME280;65062;48.446;8.834;2023-04-28T03:08:12;97284.22;;;9.33;87.22
72336;BME280;65062;48.446;8.834;2023-04-28T03:11:12;97277.75;;;9.29;87.97
72336;BME280;65062;48.446;8.834;2023-04-28T03:14:12;97280.00;;;9.32;87.68
72336;BME280;65062;48.446;8.834;2023-04-28T03:17:13;97273.50;;;9.28;87.30
72336;BME280;65062;48.446;8.834;2023-04-28T03:20:13;97267.19;;;9.23;87.96
72336;BME280;65062;48.446;8.834;2023-04-28T03:23:14;97259.19;;;9.24;87.70
72336;BME280;65062;48.446;8.834;2023-04-28T03:26:14;97259.09;;;9.32;87.47
72336;BME280;65062;48.446;8.834;2023-04-28T03:29:15;97259.00;;;9.26;87.15
72336;BME280;65062;48.446;8.834;2023-04-28T03:32:16;97254.31;;;9.36;87.74
72336;BME280;65062;48.446;8.834;2023-04-28T03:35:17;97244.66;;;9.36;87.12
72336;BME280;65062;48.446;8.834;2023-04-28T03:38:17;97239.63;;;9.35;87.14
72336;BME280;65062;48.446;8.834;2023-04-28T03:41:17;97243.84;;;9.36;87.67
72336;BME280;65062;48.446;8.834;2023-04-28T03:44:18;97241.25;;;9.36;87.80
72336;BME280;65062;48.446;8.834;2023-04-28T03:47:18;97231.94;;;9.48;87.08
72336;BME280;65062;48.446;8.834;2023-04-28T03:50:19;97241.56;;;9.47;87.53
72336;BME280;65062;48.446;8.834;2023-04-28T03:53:19;97243.63;;;9.52;87.17
72336;BME280;65062;48.446;8.834;2023-04-28T03:56:20;97240.28;;;9.58;87.27
72336;BME280;65062;48.446;8.834;2023-04-28T03:59:21;97244.97;;;9.62;87.25
72336;BME280;65062;48.446;8.834;2023-04-28T04:02:21;97244.13;;;9.62;87.46
72336;BME280;65062;48.446;8.834;2023-04-28T04:05:21;97244.13;;;9.62;87.01
72336;BME280;65062;48.446;8.834;2023-04-28T04:08:22;97235.31;;;9.63;87.18
72336;BME280;65062;48.446;8.834;2023-04-28T04:11:22;97234.81;;;9.53;87.31
72336;BME280;65062;48.446;8.834;2023-04-28T04:14:23;97225.53;;;9.50;87.81
72336;BME280;65062;48.446;8.834;2023-04-28T04:17:23;97221.06;;;9.65;87.69
72336;BME280;65062;48.446;8.834;2023-04-28T04:20:23;97207.63;;;9.68;88.10
72336;BME280;65062;48.446;8.834;2023-04-28T04:23:24;97211.75;;;9.77;87.25
72336;BME280;65062;48.446;8.834;2023-04-28T04:26:24;97210.00;;;9.84;87.56
72336;BME280;65062;48.446;8.834;2023-04-28T04:29:25;97201.78;;;9.87;88.00
72336;BME280;65062;48.446;8.834;2023-04-28T04:32:25;97202.78;;;9.86;87.91
72336;BME280;65062;48.446;8.834;2023-04-28T04:35:25;97202.63;;;9.94;88.92
72336;BME280;65062;48.446;8.834;2023-04-28T04:38:26;97188.44;;;10.03;88.04
72336;BME280;65062;48.446;8.834;2023-04-28T04:41:26;97200.16;;;10.07;88.67
72336;BME280;65062;48.446;8.834;2023-04-28T04:44:26;97201.66;;;10.16;88.91
72336;BME280;65062;48.446;8.834;2023-04-28T04:47:27;97204.13;;;10.24;88.72
72336;BME280;65062;48.446;8.834;2023-04-28T04:50:27;97200.47;;;10.46;88.73
72336;BME280;65062;48.446;8.834;2023-04-28T04:53:27;97198.56;;;10.62;88.09
72336;BME280;65062;48.446;8.834;2023-04-28T04:56:28;97206.78;;;10.58;89.30
72336;BME280;65062;48.446;8.834;2023-04-28T04:59:28;97204.44;;;10.77;87.90
72336;BME280;65062;48.446;8.834;2023-04-28T05:02:29;97202.03;;;10.75;89.12
72336;BME280;65062;48.446;8.834;2023-04-28T05:05:29;97197.66;;;10.82;88.31
72336;BME280;65062;48.446;8.834;2023-04-28T05:08:30;97195.06;;;10.89;88.68
72336;BME280;65062;48.446;8.834;2023-04-28T05:11:30;97171.34;;;10.97;87.91
72336;BME280;65062;48.446;8.834;2023-04-28T05:14:31;97167.13;;;11.02;88.15
72336;BME280;65062;48.446;8.834;2023-04-28T05:17:31;97173.78;;;11.05;88.81
72336;BME280;65062;48.446;8.834;2023-04-28T05:20:32;97193.94;;;11.11;87.19
72336;BME280;65062;48.446;8.834;2023-04-28T05:23:32;97210.63;;;11.03;86.88
72336;BME280;65062;48.446;8.834;2023-04-28T05:26:33;97204.81;;;11.08;86.63
72336;BME280;65062;48.446;8.834;2023-04-28T05:29:33;97201.28;;;11.35;85.00
72336;BME280;65062;48.446;8.834;2023-04-28T05:32:34;97196.25;;;11.40;86.42
72336;BME280;65062;48.446;8.834;2023-04-28T05:35:35;97200.97;;;11.57;86.02
72336;BME280;65062;48.446;8.834;2023-04-28T05:38:35;97194.69;;;11.58;85.71
72336;BME280;65062;48.446;8.834;2023-04-28T05:41:35;97197.72;;;11.55;83.28
72336;BME280;65062;48.446;8.834;2023-04-28T05:44:36;97205.38;;;11.57;84.07
72336;BME280;65062;48.446;8.834;2023-04-28T05:47:36;97198.53;;;11.56;84.65
72336;BME280;65062;48.446;8.834;2023-04-28T05:50:37;97197.09;;;11.47;84.61
72336;BME280;65062;48.446;8.834;2023-04-28T05:53:37;97193.25;;;11.49;85.19
72336;BME280;65062;48.446;8.834;2023-04-28T05:56:37;97193.94;;;11.64;83.91
72336;BME280;65062;48.446;8.834;2023-04-28T05:59:38;97187.31;;;11.75;83.05
72336;BME280;65062;48.446;8.834;2023-04-28T06:02:38;97186.72;;;11.79;84.63
72336;BME280;65062;48.446;8.834;2023-04-28T06:05:39;97185.28;;;11.77;84.30
72336;BME280;65062;48.446;8.834;2023-04-28T06:08:39;97190.91;;;11.74;83.05
72336;BME280;65062;48.446;8.834;2023-04-28T06:11:40;97186.09;;;11.84;85.22
72336;BME280;65062;48.446;8.834;2023-04-28T06:14:40;97192.38;;;11.89;83.14
72336;BME280;65062;48.446;8.834;2023-04-28T06:17:40;97189.31;;;11.99;83.83
72336;BME280;65062;48.446;8.834;2023-04-28T06:20:41;97195.19;;;12.01;84.64
72336;BME280;65062;48.446;8.834;2023-04-28T06:23:41;97197.41;;;12.10;83.86
72336;BME280;65062;48.446;8.834;2023-04-28T06:26:42;97190.97;;;12.13;83.94
72336;BME280;65062;48.446;8.834;2023-04-28T06:29:43;97195.19;;;12.14;83.17
72336;BME280;65062;48.446;8.834;2023-04-28T06:32:44;97191.97;;;12.05;83.04
72336;BME280;65062;48.446;8.834;2023-04-28T06:35:44;97192.75;;;12.06;84.45
72336;BME280;65062;48.446;8.834;2023-04-28T06:38:45;97182.06;;;12.07;83.25
72336;BME280;65062;48.446;8.834;2023-04-28T06:41:45;97177.44;;;12.03;83.98
72336;BME280;65062;48.446;8.834;2023-04-28T06:44:46;97169.78;;;12.01;84.06
72336;BME280;65062;48.446;8.834;2023-04-28T06:47:46;97168.75;;;12.09;82.47
72336;BME280;65062;48.446;8.834;2023-04-28T06:50:47;97172.78;;;12.18;82.72
72336;BME280;65062;48.446;8.834;2023-04-28T06:53:47;97188.91;;;12.28;81.38
72336;BME280;65062;48.446;8.834;2023-04-28T06:56:50;97184.66;;;12.46;82.98
72336;BME280;65062;48.446;8.834;2023-04-28T06:59:50;97174.34;;;12.58;81.54
72336;BME280;65062;48.446;8.834;2023-04-28T07:02:51;97168.59;;;12.87;82.20
72336;BME280;65062;48.446;8.834;2023-04-28T07:05:51;97172.44;;;12.91;81.83
72336;BME280;65062;48.446;8.834;2023-04-28T07:08:52;97169.31;;;13.20;81.99
72336;BME280;65062;48.446;8.834;2023-04-28T07:11:52;97163.91;;;13.46;80.76
72336;BME280;65062;48.446;8.834;2023-04-28T07:14:53;97168.34;;;13.52;80.39
72336;BME280;65062;48.446;8.834;2023-04-28T07:17:54;97179.59;;;13.59;80.04
72336;BME280;65062;48.446;8.834;2023-04-28T07:20:55;97176.97;;;13.59;80.18
72336;BME280;65062;48.446;8.834;2023-04-28T07:23:55;97172.69;;;13.65;80.54
72336;BME280;65062;48.446;8.834;2023-04-28T07:26:56;97164.53;;;13.79;81.23
72336;BME280;65062;48.446;8.834;2023-04-28T07:29:56;97176.81;;;13.85;80.08
72336;BME280;65062;48.446;8.834;2023-04-28T07:32:57;97174.53;;;13.95;78.20
72336;BME280;65062;48.446;8.834;2023-04-28T07:35:57;97179.22;;;13.87;79.04
72336;BME280;65062;48.446;8.834;2023-04-28T07:38:59;97175.81;;;13.86;79.49
72336;BME280;65062;48.446;8.834;2023-04-28T07:42:01;97170.63;;;13.73;80.12
72336;BME280;65062;48.446;8.834;2023-04-28T07:45:03;97168.03;;;13.67;80.69
72336;BME280;65062;48.446;8.834;2023-04-28T07:48:05;97170.25;;;13.70;80.90
72336;BME280;65062;48.446;8.834;2023-04-28T07:51:05;97183.59;;;13.68;79.76
72336;BME280;65062;48.446;8.834;2023-04-28T07:54:06;97187.69;;;13.64;80.37
72336;BME280;65062;48.446;8.834;2023-04-28T07:57:06;97191.50;;;13.68;80.61
72336;BME280;65062;48.446;8.834;2023-04-28T08:00:07;97178.63;;;13.60;81.20
72336;BME280;65062;48.446;8.834;2023-04-28T08:03:07;97184.84;;;13.66;81.12
72336;BME280;65062;48.446;8.834;2023-04-28T08:06:08;97181.66;;;13.57;80.97
72336;BME280;65062;48.446;8.834;2023-04-28T08:09:08;97186.88;;;13.64;80.69
72336;BME280;65062;48.446;8.834;2023-04-28T08:12:08;97186.50;;;13.60;81.81
72336;BME280;65062;48.446;8.834;2023-04-28T08:15:09;97195.66;;;13.51;83.08
72336;BME280;65062;48.446;8.834;2023-04-28T08:18:10;97213.00;;;13.59;82.61
72336;BME280;65062;48.446;8.834;2023-04-28T08:21:10;97207.09;;;13.63;82.26
72336;BME280;65062;48.446;8.834;2023-04-28T08:24:11;97203.28;;;13.59;83.54
72336;BME280;65062;48.446;8.834;2023-04-28T08:27:11;97210.53;;;13.64;83.23
72336;BME280;65062;48.446;8.834;2023-04-28T08:30:12;97206.44;;;13.74;84.23
72336;BME280;65062;48.446;8.834;2023-04-28T08:33:12;97209.16;;;13.92;84.00
72336;BME280;65062;48.446;8.834;2023-04-28T08:36:13;97207.38;;;14.11;83.58
72336;BME280;65062;48.446;8.834;2023-04-28T08:39:17;97207.41;;;14.35;83.58
72336;BME280;65062;48.446;8.834;2023-04-28T08:42:18;97217.88;;;14.66;82.53
72336;BME280;65062;48.446;8.834;2023-04-28T08:45:20;97209.63;;;14.99;80.69
72336;BME280;65062;48.446;8.834;2023-04-28T08:48:23;97226.75;;;15.26;79.89
72336;BME280;65062;48.446;8.834;2023-04-28T08:51:34;97235.00;;;15.30;77.33
72336;BME280;65062;48.446;8.834;2023-04-28T08:54:37;97239.00;;;15.39;78.85
72336;BME280;65062;48.446;8.834;2023-04-28T08:57:42;97246.13;;;15.38;77.50
72336;BME280;65062;48.446;8.834;2023-04-28T09:00:43;97234.31;;;15.41;78.48
72336;BME280;65062;48.446;8.834;2023-04-28T09:03:43;97229.50;;;15.38;80.49
72336;BME280;65062;48.446;8.834;2023-04-28T09:06:44;97234.44;;;15.28;78.55
72336;BME280;65062;48.446;8.834;2023-04-28T09:09:45;97237.81;;;15.17;79.44
72336;BME280;65062;48.446;8.834;2023-04-28T09:12:46;97241.91;;;14.95;78.95
72336;BME280;65062;48.446;8.834;2023-04-28T09:15:48;97250.63;;;14.95;81.03
72336;BME280;65062;48.446;8.834;2023-04-28T09:18:56;97252.00;;;14.98;79.18
72336;BME280;65062;48.446;8.834;2023-04-28T09:21:57;97240.16;;;15.07;79.39
72336;BME280;65062;48.446;8.834;2023-04-28T09:25:10;97255.97;;;15.25;78.62
72336;BME280;65062;48.446;8.834;2023-04-28T09:28:20;97257.69;;;15.37;79.02
72336;BME280;65062;48.446;8.834;2023-04-28T09:31:25;97265.94;;;15.88;78.25
72336;BME280;65062;48.446;8.834;2023-04-28T09:34:41;97255.66;;;16.39;76.51
72336;BME280;65062;48.446;8.834;2023-04-28T09:37:44;97256.41;;;16.69;75.08
72336;BME280;65062;48.446;8.834;2023-04-28T09:40:52;97251.44;;;17.31;75.03
72336;BME280;65062;48.446;8.834;2023-04-28T09:43:53;97254.63;;;17.84;72.59
72336;BME280;65062;48.446;8.834;2023-04-28T09:46:54;97255.66;;;17.83;72.67
72336;BME280;65062;48.446;8.834;2023-04-28T09:49:56;97253.06;;;18.44;72.10
72336;BME280;65062;48.446;8.834;2023-04-28T09:52:57;97252.03;;;18.45;68.66
72336;BME280;65062;48.446;8.834;2023-04-28T09:56:00;97252.38;;;18.20;69.32
72336;BME280;65062;48.446;8.834;2023-04-28T09:59:01;97259.75;;;17.90;69.79
72336;BME280;65062;48.446;8.834;2023-04-28T10:02:04;97257.34;;;17.61;72.72
72336;BME280;65062;48.446;8.834;2023-04-28T10:05:05;97267.38;;;17.47;72.12
72336;BME280;65062;48.446;8.834;2023-04-28T10:08:11;97265.47;;;16.62;74.13
72336;BME280;65062;48.446;8.834;2023-04-28T10:11:14;97261.78;;;16.51;74.60
72336;BME280;65062;48.446;8.834;2023-04-28T10:14:15;97258.13;;;16.87;75.63
72336;BME280;65062;48.446;8.834;2023-04-28T10:17:16;97262.00;;;17.19;75.43
72336;BME280;65062;48.446;8.834;2023-04-28T10:20:17;97264.03;;;17.40;72.64
72336;BME280;65062;48.446;8.834;2023-04-28T10:30:13;97266.13;;;17.27;72.90
72336;BME280;65062;48.446;8.834;2023-04-28T10:47:01;97252.25;;;18.43;71.09
72336;BME280;65062;48.446;8.834;2023-04-28T10:50:07;97256.75;;;18.59;68.30
72336;BME280;65062;48.446;8.834;2023-04-28T10:53:08;97250.63;;;18.26;68.92
72336;BME280;65062;48.446;8.834;2023-04-28T10:56:24;97258.59;;;18.92;67.75
72336;BME280;65062;48.446;8.834;2023-04-28T10:59:26;97240.63;;;19.80;65.21
72336;BME280;65062;48.446;8.834;2023-04-28T11:02:38;97249.16;;;20.09;61.62
72336;BME280;65062;48.446;8.834;2023-04-28T11:12:31;97250.91;;;19.29;64.11
72336;BME280;65062;48.446;8.834;2023-04-28T11:15:31;97237.44;;;19.57;64.57
72336;BME280;65062;48.446;8.834;2023-04-28T11:18:47;97240.53;;;19.11;64.27
72336;BME280;65062;48.446;8.834;2023-04-28T11:21:53;97240.41;;;19.22;64.98
72336;BME280;65062;48.446;8.834;2023-04-28T11:25:00;97241.03;;;19.67;63.15
72336;BME280;65062;48.446;8.834;2023-04-28T11:28:03;97254.41;;;19.34;61.23
72336;BME280;65062;48.446;8.834;2023-04-28T11:31:10;97245.72;;;19.60;60.72
72336;BME280;65062;48.446;8.834;2023-04-28T11:34:11;97259.16;;;19.75;59.82
72336;BME280;65062;48.446;8.834;2023-04-28T11:37:14;97256.25;;;19.77;60.18
72336;BME280;65062;48.446;8.834;2023-04-28T11:40:15;97254.34;;;19.72;62.80
72336;BME280;65062;48.446;8.834;2023-04-28T11:43:15;97246.41;;;19.51;59.18
72336;BME280;65062;48.446;8.834;2023-04-28T11:46:20;97240.81;;;20.53;58.75
72336;BME280;65062;48.446;8.834;2023-04-28T11:49:22;97239.41;;;20.46;59.54
72336;BME280;65062;48.446;8.834;2023-04-28T11:52:27;97244.66;;;19.61;60.25
72336;BME280;65062;48.446;8.834;2023-04-28T11:55:27;97229.41;;;19.30;60.57
72336;BME280;65062;48.446;8.834;2023-04-28T11:58:28;97226.25;;;19.55;61.19
72336;BME280;65062;48.446;8.834;2023-04-28T12:01:29;97234.66;;;19.68;60.02
72336;BME280;65062;48.446;8.834;2023-04-28T12:07:40;97238.06;;;19.42;59.19
72336;BME280;65062;48.446;8.834;2023-04-28T12:10:42;97228.91;;;19.12;60.17
72336;BME280;65062;48.446;8.834;2023-04-28T12:13:42;97231.19;;;19.25;61.49
72336;BME280;65062;48.446;8.834;2023-04-28T12:16:43;97245.47;;;19.24;61.20
72336;BME280;65062;48.446;8.834;2023-04-28T12:19:44;97248.94;;;18.86;61.79
72336;BME280;65062;48.446;8.834;2023-04-28T12:22:45;97238.44;;;18.91;64.76
72336;BME280;65062;48.446;8.834;2023-04-28T12:25:46;97236.19;;;19.05;61.00
72336;BME280;65062;48.446;8.834;2023-04-28T12:28:47;97232.78;;;18.88;63.41
72336;BME280;65062;48.446;8.834;2023-04-28T12:31:48;97246.63;;;18.90;62.76
72336;BME280;65062;48.446;8.834;2023-04-28T12:34:49;97230.72;;;18.56;60.53
72336;BME280;65062;48.446;8.834;2023-04-28T12:37:51;97239.50;;;18.57;64.05
72336;BME280;65062;48.446;8.834;2023-04-28T12:40:52;97239.97;;;18.54;61.55
72336;BME280;65062;48.446;8.834;2023-04-28T12:43:52;97242.03;;;18.85;62.09
72336;BME280;65062;48.446;8.834;2023-04-28T12:46:53;97234.28;;;19.00;62.20
72336;BME280;65062;48.446;8.834;2023-04-28T12:49:55;97227.22;;;18.67;65.53
72336;BME280;65062;48.446;8.834;2023-04-28T12:52:55;97234.72;;;18.76;63.07
72336;BME280;65062;48.446;8.834;2023-04-28T12:55:56;97229.84;;;18.51;65.35
72336;BME280;65062;48.446;8.834;2023-04-28T12:58:59;97233.19;;;18.96;64.39
72336;BME280;65062;48.446;8.834;2023-04-28T13:02:01;97237.19;;;18.99;62.11
72336;BME280;65062;48.446;8.834;2023-04-28T13:05:02;97225.91;;;18.87;61.96
72336;BME280;65062;48.446;8.834;2023-04-28T13:08:03;97234.34;;;18.84;61.34
72336;BME280;65062;48.446;8.834;2023-04-28T13:11:04;97221.13;;;18.89;61.80
72336;BME280;65062;48.446;8.834;2023-04-28T13:14:05;97217.63;;;19.43;61.50
72336;BME280;65062;48.446;8.834;2023-04-28T13:17:06;97216.66;;;20.02;59.60
72336;BME280;65062;48.446;8.834;2023-04-28T13:20:07;97204.53;;;20.11;58.39
72336;BME280;65062;48.446;8.834;2023-04-28T13:23:08;97206.69;;;19.87;60.30
72336;BME280;65062;48.446;8.834;2023-04-28T13:26:08;97212.06;;;19.66;59.18
72336;BME280;65062;48.446;8.834;2023-04-28T13:29:09;97209.28;;;20.09;58.46
72336;BME280;65062;48.446;8.834;2023-04-28T13:32:09;97204.19;;;19.28;61.71
72336;BME280;65062;48.446;8.834;2023-04-28T13:35:10;97195.50;;;19.32;61.04
72336;BME280;65062;48.446;8.834;2023-04-28T13:38:10;97195.97;;;19.51;61.22
72336;BME280;65062;48.446;8.834;2023-04-28T13:41:10;97198.53;;;19.46;61.71
72336;BME280;65062;48.446;8.834;2023-04-28T13:44:11;97191.47;;;18.92;60.90
72336;BME280;65062;48.446;8.834;2023-04-28T13:47:11;97198.53;;;18.48;63.94
72336;BME280;65062;48.446;8.834;2023-04-28T13:50:12;97209.00;;;17.93;66.92
72336;BME280;65062;48.446;8.834;2023-04-28T13:53:12;97207.69;;;17.40;69.52
72336;BME280;65062;48.446;8.834;2023-04-28T13:56:12;97217.56;;;16.82;71.20
72336;BME280;65062;48.446;8.834;2023-04-28T13:59:13;97215.22;;;16.39;73.09
72336;BME280;65062;48.446;8.834;2023-04-28T14:02:13;97215.53;;;16.08;77.60
72336;BME280;65062;48.446;8.834;2023-04-28T14:05:14;97212.59;;;15.86;79.50
72336;BME280;65062;48.446;8.834;2023-04-28T14:08:16;97221.19;;;15.82;79.53
72336;BME280;65062;48.446;8.834;2023-04-28T14:11:17;97211.38;;;15.71;81.69
72336;BME280;65062;48.446;8.834;2023-04-28T14:14:17;97203.75;;;15.81;83.18
72336;BME280;65062;48.446;8.834;2023-04-28T14:17:17;97198.38;;;15.87;83.10
72336;BME280;65062;48.446;8.834;2023-04-28T14:20:18;97194.38;;;15.96;82.40
72336;BME280;65062;48.446;8.834;2023-04-28T14:23:18;97187.09;;;16.33;81.32
72336;BME280;65062;48.446;8.834;2023-04-28T14:26:19;97181.94;;;16.73;81.47
72336;BME280;65062;48.446;8.834;2023-04-28T14:29:19;97179.53;;;16.94;80.83
72336;BME280;65062;48.446;8.834;2023-04-28T14:32:20;97181.97;;;17.24;80.35
72336;BME280;65062;48.446;8.834;2023-04-28T14:35:20;97185.13;;;17.37;78.99
72336;BME280;65062;48.446;8.834;2023-04-28T14:38:21;97184.34;;;17.48;78.69
72336;BME280;65062;48.446;8.834;2023-04-28T14:41:21;97185.09;;;17.60;78.52
72336;BME280;65062;48.446;8.834;2023-04-28T14:44:22;97178.41;;;17.58;77.12
72336;BME280;65062;48.446;8.834;2023-04-28T14:47:22;97166.25;;;17.57;77.84
72336;BME280;65062;48.446;8.834;2023-04-28T14:50:24;97169.75;;;17.34;78.85
72336;BME280;65062;48.446;8.834;2023-04-28T14:53:24;97163.91;;;17.21;79.67
72336;BME280;65062;48.446;8.834;2023-04-28T14:56:25;97162.91;;;17.22;79.13
72336;BME280;65062;48.446;8.834;2023-04-28T14:59:26;97168.41;;;17.20;78.74
72336;BME280;65062;48.446;8.834;2023-04-28T15:02:26;97168.66;;;17.19;79.21
72336;BME280;65062;48.446;8.834;2023-04-28T15:05:28;97166.31;;;17.22;79.46
72336;BME280;65062;48.446;8.834;2023-04-28T15:08:28;97165.78;;;17.20;80.21
72336;BME280;65062;48.446;8.834;2023-04-28T15:11:31;97158.66;;;17.09;80.41
72336;BME280;65062;48.446;8.834;2023-04-28T15:14:31;97162.25;;;16.92;80.23
72336;BME280;65062;48.446;8.834;2023-04-28T15:17:31;97157.22;;;16.90;80.76
72336;BME280;65062;48.446;8.834;2023-04-28T15:20:33;97150.91;;;16.91;80.92
72336;BME280;65062;48.446;8.834;2023-04-28T15:23:36;97148.47;;;17.01;80.94
72336;BME280;65062;48.446;8.834;2023-04-28T15:26:36;97152.81;;;17.07;80.47
72336;BME280;65062;48.446;8.834;2023-04-28T15:29:37;97145.78;;;17.13;80.88
72336;BME280;65062;48.446;8.834;2023-04-28T15:32:37;97141.31;;;17.13;79.70
72336;BME280;65062;48.446;8.834;2023-04-28T15:35:38;97137.28;;;17.11;80.54
72336;BME280;65062;48.446;8.834;2023-04-28T15:38:38;97131.03;;;17.17;80.74
72336;BME280;65062;48.446;8.834;2023-04-28T15:41:41;97134.44;;;17.01;81.16
72336;BME280;65062;48.446;8.834;2023-04-28T15:44:41;97120.16;;;17.02;81.10
72336;BME280;65062;48.446;8.834;2023-04-28T15:47:42;97113.31;;;16.89;80.99
72336;BME280;65062;48.446;8.834;2023-04-28T15:50:43;97115.16;;;16.89;80.34
72336;BME280;65062;48.446;8.834;2023-04-28T15:53:43;97116.78;;;16.90;79.32
72336;BME280;65062;48.446;8.834;2023-04-28T15:56:43;97121.94;;;16.85;78.94
72336;BME280;65062;48.446;8.834;2023-04-28T15:59:44;97128.59;;;16.87;78.73
72336;BME280;65062;48.446;8.834;2023-04-28T16:02:45;97130.31;;;16.93;79.89
72336;BME280;65062;48.446;8.834;2023-04-28T16:05:45;97116.09;;;17.50;80.04
72336;BME280;65062;48.446;8.834;2023-04-28T16:08:46;97112.94;;;18.14;77.27
72336;BME280;65062;48.446;8.834;2023-04-28T16:11:46;97107.34;;;18.65;75.93
72336;BME280;65062;48.446;8.834;2023-04-28T16:14:49;97105.09;;;18.96;74.44
72336;BME280;65062;48.446;8.834;2023-04-28T16:17:50;97089.66;;;18.93;72.64
72336;BME280;65062;48.446;8.834;2023-04-28T16:20:51;97093.97;;;18.55;75.73
72336;BME280;65062;48.446;8.834;2023-04-28T16:23:52;97109.72;;;17.96;75.79
72336;BME280;65062;48.446;8.834;2023-04-28T16:26:53;97116.81;;;17.46;79.06
72336;BME280;65062;48.446;8.834;2023-04-28T16:29:53;97110.00;;;17.22;80.45
72336;BME280;65062;48.446;8.834;2023-04-28T16:32:53;97102.81;;;17.06;81.31